Time;durP1;ratioP1;P1;durP2;ratioP2;P2;SDS_P1;SDS_P2;PMS_P1;PMS_P2;Temp;Humidity;BMP_temperature;BMP_pressure;BME280_temperature;BME280_humidity;BME280_pressure;Samples;Min_cycle;Max_cycle;Signal;HPM_P1;HPM_P2
2021/03/10 00:01:22;;;;;;;13.07;7.40;;;4.60;99.90;;;;;;5066660;28;20051;-87
2021/03/10 00:03:47;;;;;;;11.05;6.93;;;4.60;99.90;;;;;;5060484;28;20095;-87
2021/03/10 00:06:13;;;;;;;12.20;7.10;;;4.50;99.90;;;;;;5057689;28;20104;-87
2021/03/10 00:08:38;;;;;;;11.35;7.18;;;4.60;99.90;;;;;;5059405;28;20358;-86
2021/03/10 00:11:04;;;;;;;11.93;7.50;;;4.60;99.90;;;;;;5061059;28;20379;-86
2021/03/10 00:13:29;;;;;;;15.35;9.38;;;4.50;99.90;;;;;;5060182;28;20512;-86
2021/03/10 00:15:55;;;;;;;16.10;9.30;;;4.50;99.90;;;;;;5073757;28;20036;-87
2021/03/10 00:18:20;;;;;;;12.85;8.52;;;4.40;99.90;;;;;;5059343;28;20093;-87
2021/03/10 00:20:46;;;;;;;12.93;8.00;;;4.50;99.90;;;;;;5058801;28;20028;-86
2021/03/10 00:23:11;;;;;;;13.25;8.32;;;4.40;99.90;;;;;;5061960;28;20427;-86
2021/03/10 00:25:37;;;;;;;12.32;7.95;;;4.40;99.90;;;;;;5059654;28;20017;-86
2021/03/10 00:28:02;;;;;;;14.30;8.10;;;4.50;99.90;;;;;;5059115;28;20029;-87
2021/03/10 00:30:28;;;;;;;13.05;8.30;;;4.50;99.90;;;;;;5057472;28;20452;-87
2021/03/10 00:32:53;;;;;;;12.18;8.70;;;4.50;99.90;;;;;;5055929;28;20029;-86
2021/03/10 00:35:19;;;;;;;14.40;8.32;;;4.50;99.90;;;;;;5071972;28;20059;-86
2021/03/10 00:37:45;;;;;;;15.38;9.27;;;4.60;99.90;;;;;;5061309;28;20031;-86
2021/03/10 00:40:10;;;;;;;10.82;7.15;;;4.60;99.90;;;;;;5059584;28;20054;-87
2021/03/10 00:42:36;;;;;;;10.00;7.07;;;4.60;99.90;;;;;;5062288;28;20013;-87
2021/03/10 00:45:01;;;;;;;9.18;7.05;;;4.70;99.90;;;;;;5060585;28;20494;-87
2021/03/10 00:47:27;;;;;;;11.05;7.20;;;4.70;99.90;;;;;;5064063;28;20025;-86
2021/03/10 00:49:52;;;;;;;12.25;7.68;;;4.80;99.90;;;;;;5064689;28;20028;-87
2021/03/10 00:52:18;;;;;;;12.60;7.38;;;4.90;99.90;;;;;;5056114;28;20029;-86
2021/03/10 00:54:43;;;;;;;9.73;6.38;;;4.90;99.90;;;;;;5061179;28;20032;-86
2021/03/10 00:57:09;;;;;;;9.60;5.93;;;4.90;99.90;;;;;;5064572;28;20493;-87
2021/03/10 00:59:35;;;;;;;8.05;5.82;;;4.90;99.90;;;;;;5059071;28;20074;-87
2021/03/10 01:02:00;;;;;;;7.78;5.32;;;4.90;99.90;;;;;;5056168;28;20027;-86
2021/03/10 01:04:27;;;;;;;6.20;4.40;;;4.90;99.90;;;;;;5060012;28;20054;-86
2021/03/10 01:06:52;;;;;;;7.57;4.60;;;4.90;99.90;;;;;;5057423;28;20021;-87
2021/03/10 01:09:18;;;;;;;5.82;4.47;;;4.90;99.90;;;;;;5068457;28;20032;-87
2021/03/10 01:11:44;;;;;;;6.63;4.72;;;4.80;99.90;;;;;;5056944;28;20033;-86
2021/03/10 01:14:09;;;;;;;4.85;3.65;;;4.80;99.90;;;;;;5053971;28;20044;-86
2021/03/10 01:16:36;;;;;;;6.47;4.32;;;4.80;99.90;;;;;;5062973;28;20021;-87
2021/03/10 01:19:03;;;;;;;6.10;4.75;;;4.70;99.90;;;;;;5062737;28;20016;-87
2021/03/10 01:21:29;;;;;;;6.25;4.22;;;4.70;99.90;;;;;;5059651;28;20025;-87
2021/03/10 01:23:54;;;;;;;6.22;4.57;;;4.60;99.90;;;;;;5055206;28;20092;-86
2021/03/10 01:26:20;;;;;;;6.00;4.50;;;4.50;99.90;;;;;;5068813;28;20027;-87
2021/03/10 01:28:45;;;;;;;5.72;4.30;;;4.50;99.90;;;;;;5062397;28;20024;-86
2021/03/10 01:31:11;;;;;;;7.20;4.70;;;4.40;99.90;;;;;;5064725;28;20485;-87
2021/03/10 01:33:36;;;;;;;6.15;4.45;;;4.40;99.90;;;;;;5060281;28;20508;-87
2021/03/10 01:36:02;;;;;;;6.78;4.18;;;4.40;99.90;;;;;;5062582;28;20029;-87
2021/03/10 01:38:28;;;;;;;6.05;4.00;;;4.30;99.90;;;;;;5063296;28;20021;-87
2021/03/10 01:40:54;;;;;;;7.60;4.85;;;4.30;99.90;;;;;;5058931;28;20024;-86
2021/03/10 01:43:19;;;;;;;5.82;3.78;;;4.30;99.90;;;;;;5064909;28;20406;-87
2021/03/10 01:45:45;;;;;;;8.43;4.43;;;4.20;99.90;;;;;;5062200;28;20046;-87
2021/03/10 01:48:11;;;;;;;5.97;4.25;;;4.20;99.90;;;;;;5059343;28;20072;-87
2021/03/10 01:50:37;;;;;;;6.47;4.13;;;4.10;99.90;;;;;;5060807;28;20115;-86
2021/03/10 01:53:04;;;;;;;5.70;3.88;;;4.10;99.90;;;;;;5067811;28;20045;-86
2021/03/10 01:55:31;;;;;;;6.43;4.38;;;4.10;99.90;;;;;;5065065;28;20021;-87
2021/03/10 01:57:56;;;;;;;5.97;3.92;;;4.10;99.90;;;;;;5054868;28;20021;-86
2021/03/10 02:00:24;;;;;;;5.68;3.83;;;4.10;99.90;;;;;;5059926;28;20066;-87
2021/03/10 02:02:50;;;;;;;5.75;4.10;;;4.20;99.90;;;;;;5061826;28;20017;-87
2021/03/10 02:05:21;;;;;;;6.15;4.45;;;4.10;99.90;;;;;;5071762;28;20375;-86
2021/03/10 02:08:16;;;;;;;7.28;4.68;;;4.20;99.90;;;;;;5063167;28;20024;-87
2021/03/10 02:11:14;;;;;;;5.22;4.28;;;4.20;99.90;;;;;;5061118;28;20040;-86
2021/03/10 02:14:03;;;;;;;9.82;5.53;;;4.20;99.90;;;;;;5065910;28;20044;-87
2021/03/10 02:16:42;;;;;;;7.65;5.25;;;4.20;99.90;;;;;;5071224;28;20050;-87
2021/03/10 02:19:39;;;;;;;9.48;5.97;;;4.20;99.90;;;;;;5056174;28;20523;-87
2021/03/10 02:22:26;;;;;;;7.25;5.47;;;4.10;99.90;;;;;;5063661;28;20032;-87
2021/03/10 02:25:08;;;;;;;8.50;5.93;;;4.20;99.90;;;;;;5057574;28;20021;-87
2021/03/10 02:27:43;;;;;;;9.05;5.60;;;4.10;99.90;;;;;;5062913;28;20025;-86
2021/03/10 02:30:11;;;;;;;8.27;5.97;;;4.10;99.90;;;;;;5080845;28;20053;-87
2021/03/10 02:32:39;;;;;;;7.50;5.35;;;4.10;99.90;;;;;;5060859;28;20409;-86
2021/03/10 02:35:08;;;;;;;8.43;4.80;;;4.10;99.90;;;;;;5071237;28;20077;-87
2021/03/10 02:37:36;;;;;;;9.02;6.47;;;4.20;99.90;;;;;;5059428;28;20051;-87
2021/03/10 02:40:02;;;;;;;9.32;6.30;;;4.20;99.90;;;;;;5055697;28;20025;-86
2021/03/10 02:42:29;;;;;;;13.60;8.52;;;4.30;99.90;;;;;;5061895;28;20043;-86
2021/03/10 02:44:56;;;;;;;11.68;8.07;;;4.30;99.90;;;;;;5061329;28;20026;-87
2021/03/10 02:47:24;;;;;;;8.70;6.57;;;4.30;99.90;;;;;;5063445;28;20051;-86
2021/03/10 02:49:52;;;;;;;8.57;5.75;;;4.30;99.90;;;;;;5060433;28;20385;-86
2021/03/10 02:52:18;;;;;;;7.38;5.55;;;4.30;99.90;;;;;;5059709;28;20029;-86
2021/03/10 02:54:44;;;;;;;7.90;5.57;;;4.30;99.90;;;;;;5064711;28;20020;-86
2021/03/10 02:57:11;;;;;;;8.68;6.15;;;4.30;99.90;;;;;;5056975;28;20020;-87
2021/03/10 02:59:37;;;;;;;11.90;8.07;;;4.40;99.90;;;;;;5060176;28;20032;-86
2021/03/10 03:02:03;;;;;;;13.93;8.40;;;4.40;99.90;;;;;;5062825;28;20036;-86
2021/03/10 03:04:28;;;;;;;10.30;7.30;;;4.40;99.90;;;;;;5062512;28;20047;-86
2021/03/10 03:06:54;;;;;;;12.13;7.40;;;4.40;99.90;;;;;;5067514;28;20488;-86
2021/03/10 03:09:20;;;;;;;10.82;7.65;;;4.40;99.90;;;;;;5058278;28;20491;-86
2021/03/10 03:11:46;;;;;;;12.85;8.30;;;4.40;99.90;;;;;;5061401;28;20025;-86
2021/03/10 03:14:11;;;;;;;11.65;8.45;;;4.40;99.90;;;;;;5058886;28;20025;-86
2021/03/10 03:16:38;;;;;;;12.25;8.30;;;4.40;99.90;;;;;;5058057;28;20021;-86
2021/03/10 03:19:03;;;;;;;12.10;9.05;;;4.40;99.90;;;;;;5061054;28;20013;-86
2021/03/10 03:21:29;;;;;;;12.07;9.52;;;4.40;99.90;;;;;;5060290;28;20016;-86
2021/03/10 03:23:55;;;;;;;14.88;10.05;;;4.50;99.90;;;;;;5061152;28;20547;-86
2021/03/10 03:26:21;;;;;;;16.90;10.40;;;4.50;99.90;;;;;;5055626;28;20025;-87
2021/03/10 03:28:47;;;;;;;13.55;9.52;;;4.60;99.90;;;;;;5061913;28;20058;-87
2021/03/10 03:31:16;;;;;;;13.90;9.60;;;4.60;99.90;;;;;;5067071;28;20021;-87
2021/03/10 03:33:43;;;;;;;14.27;9.52;;;4.60;99.90;;;;;;5065150;28;20046;-86
2021/03/10 03:36:09;;;;;;;11.75;8.50;;;4.70;99.90;;;;;;5074673;28;20554;-85
2021/03/10 03:38:35;;;;;;;12.02;9.43;;;4.70;99.90;;;;;;5054449;28;20021;-85
2021/03/10 03:41:00;;;;;;;13.38;10.50;;;4.70;99.90;;;;;;5061955;28;20528;-85
2021/03/10 03:43:27;;;;;;;15.15;10.65;;;4.60;99.90;;;;;;5060465;28;20091;-86
2021/03/10 03:45:54;;;;;;;17.00;12.85;;;4.60;99.90;;;;;;5057322;28;20028;-86
2021/03/10 03:48:20;;;;;;;21.10;15.05;;;4.60;99.90;;;;;;5057976;28;20481;-86
2021/03/10 03:50:47;;;;;;;19.58;13.43;;;4.60;99.90;;;;;;5058066;28;20025;-86
2021/03/10 03:53:13;;;;;;;18.52;12.82;;;4.50;99.90;;;;;;5058802;28;20021;-86
2021/03/10 03:55:39;;;;;;;18.17;12.18;;;4.50;99.90;;;;;;5056804;28;20052;-86
2021/03/10 03:58:04;;;;;;;17.45;12.98;;;4.50;99.90;;;;;;5055255;28;20062;-86
2021/03/10 04:00:30;;;;;;;17.70;12.18;;;4.50;99.90;;;;;;5060068;28;20096;-86
2021/03/10 04:02:56;;;;;;;17.33;13.05;;;4.60;99.90;;;;;;5066158;28;20081;-86
2021/03/10 04:05:21;;;;;;;18.70;13.23;;;4.60;99.90;;;;;;5063070;28;20021;-86
2021/03/10 04:07:55;;;;;;;20.30;13.32;;;4.60;99.90;;;;;;5058195;28;20020;-86
2021/03/10 04:10:29;;;;;;;22.08;14.10;;;4.60;99.90;;;;;;5066833;28;20021;-86
2021/03/10 04:12:55;;;;;;;21.48;14.57;;;4.60;99.90;;;;;;5086789;28;20025;-85
2021/03/10 04:15:22;;;;;;;25.42;15.23;;;4.50;99.90;;;;;;5051917;28;20040;-86
2021/03/10 04:17:49;;;;;;;19.60;13.13;;;4.50;99.90;;;;;;5053625;28;20131;-86
2021/03/10 04:20:16;;;;;;;21.48;14.10;;;4.50;99.90;;;;;;5053712;28;20023;-86
2021/03/10 04:22:42;;;;;;;21.73;15.43;;;4.60;99.90;;;;;;5052503;28;20028;-85
2021/03/10 04:25:09;;;;;;;25.85;15.75;;;4.60;99.90;;;;;;5055452;28;20028;-85
2021/03/10 04:27:34;;;;;;;22.52;15.32;;;4.50;99.90;;;;;;5091333;28;20044;-86
2021/03/10 04:30:00;;;;;;;24.33;15.20;;;4.50;99.90;;;;;;5063327;28;20029;-86
2021/03/10 04:32:26;;;;;;;19.42;13.85;;;4.40;99.90;;;;;;5082400;28;20119;-84
2021/03/10 04:34:52;;;;;;;20.70;14.25;;;4.50;99.90;;;;;;5079552;28;20013;-85
2021/03/10 04:37:17;;;;;;;23.17;15.20;;;4.50;99.90;;;;;;5079781;28;20012;-85
2021/03/10 04:39:44;;;;;;;22.33;14.05;;;4.40;99.90;;;;;;5079312;28;20068;-85
2021/03/10 04:42:09;;;;;;;20.73;13.10;;;4.50;99.90;;;;;;5085346;28;20388;-85
2021/03/10 04:44:35;;;;;;;20.98;14.40;;;4.50;99.90;;;;;;5056797;28;20028;-85
2021/03/10 04:47:00;;;;;;;17.60;12.50;;;4.40;99.90;;;;;;5056329;28;20021;-85
2021/03/10 04:49:26;;;;;;;19.60;13.57;;;4.50;99.90;;;;;;5053764;28;20052;-86
2021/03/10 04:51:52;;;;;;;21.85;14.40;;;4.40;99.90;;;;;;5058156;28;20074;-86
2021/03/10 04:54:17;;;;;;;19.50;13.90;;;4.40;99.90;;;;;;5055793;28;20033;-85
2021/03/10 04:56:43;;;;;;;21.05;14.18;;;4.40;99.90;;;;;;5051535;28;20100;-85
2021/03/10 04:59:08;;;;;;;24.45;15.75;;;4.30;99.90;;;;;;5051389;28;20113;-85
2021/03/10 05:01:34;;;;;;;21.83;14.65;;;4.30;99.90;;;;;;5087105;28;20017;-85
2021/03/10 05:03:59;;;;;;;26.27;15.48;;;4.30;99.90;;;;;;5054745;28;20036;-85
2021/03/10 05:06:26;;;;;;;21.70;14.93;;;4.30;99.90;;;;;;5054931;28;20047;-85
2021/03/10 05:08:52;;;;;;;26.95;15.60;;;4.30;99.90;;;;;;5052640;28;20111;-85
2021/03/10 05:11:18;;;;;;;22.70;14.98;;;4.30;99.90;;;;;;5057784;28;20063;-86
2021/03/10 05:13:43;;;;;;;23.80;14.32;;;4.40;99.90;;;;;;5057738;28;20017;-85
2021/03/10 05:16:09;;;;;;;22.27;14.65;;;4.50;99.90;;;;;;5057273;28;20064;-85
2021/03/10 05:18:34;;;;;;;27.83;16.60;;;4.50;99.90;;;;;;5055785;28;20017;-85
2021/03/10 05:21:00;;;;;;;29.13;17.92;;;4.60;99.90;;;;;;5054495;28;20544;-84
2021/03/10 05:23:25;;;;;;;26.60;17.27;;;4.60;99.90;;;;;;5060316;28;20025;-84
2021/03/10 05:25:51;;;;;;;26.20;16.90;;;4.60;99.90;;;;;;5053520;28;20056;-84
2021/03/10 05:28:17;;;;;;;27.48;16.25;;;4.60;99.90;;;;;;5055508;28;20053;-85
2021/03/10 05:30:42;;;;;;;30.25;16.75;;;4.60;99.90;;;;;;5063007;28;20046;-85
2021/03/10 05:33:08;;;;;;;26.67;16.58;;;4.70;99.90;;;;;;5056566;28;20021;-85
2021/03/10 05:35:33;;;;;;;27.50;17.48;;;4.70;99.90;;;;;;5057373;28;20025;-85
2021/03/10 05:37:59;;;;;;;28.63;18.05;;;4.70;99.90;;;;;;5059254;28;20013;-84
2021/03/10 05:40:26;;;;;;;33.95;20.13;;;4.70;99.90;;;;;;5057858;28;20155;-84
2021/03/10 05:42:52;;;;;;;26.88;17.42;;;4.60;99.90;;;;;;5054875;28;20476;-84
2021/03/10 05:45:17;;;;;;;28.52;18.77;;;4.60;99.90;;;;;;5063564;28;20024;-84
2021/03/10 05:47:43;;;;;;;29.80;18.33;;;4.60;99.90;;;;;;5058105;28;20032;-85
2021/03/10 05:50:09;;;;;;;34.55;19.58;;;4.50;99.90;;;;;;5060024;28;20021;-84
2021/03/10 05:52:37;;;;;;;36.38;20.85;;;4.50;99.90;;;;;;5090872;28;20052;-84
2021/03/10 05:55:05;;;;;;;37.78;21.25;;;4.50;99.90;;;;;;5055020;28;20029;-84
2021/03/10 05:57:31;;;;;;;33.67;20.75;;;4.50;99.90;;;;;;5055327;28;20028;-83
2021/03/10 05:59:57;;;;;;;34.33;21.88;;;4.60;99.90;;;;;;5054308;28;20017;-84
2021/03/10 06:02:22;;;;;;;39.17;22.50;;;4.50;99.90;;;;;;5058106;28;20040;-84
2021/03/10 06:04:48;;;;;;;39.45;23.15;;;4.60;99.90;;;;;;5059560;28;20040;-84
2021/03/10 06:07:21;;;;;;;38.78;23.33;;;4.50;99.90;;;;;;5058488;28;20017;-84
2021/03/10 06:10:01;;;;;;;38.05;21.85;;;4.60;99.90;;;;;;5088916;28;20088;-83
2021/03/10 06:12:44;;;;;;;44.72;24.50;;;4.60;99.90;;;;;;5088822;28;20116;-84
2021/03/10 06:15:11;;;;;;;42.17;25.13;;;4.60;99.90;;;;;;5062409;28;20399;-84
2021/03/10 06:17:49;;;;;;;46.25;25.90;;;4.60;99.90;;;;;;5054919;28;20025;-83
2021/03/10 06:20:24;;;;;;;47.35;26.15;;;4.60;99.90;;;;;;5061545;28;20095;-84
2021/03/10 06:22:50;;;;;;;44.70;26.05;;;4.60;99.90;;;;;;5054807;28;20048;-83
2021/03/10 06:25:16;;;;;;;49.13;27.65;;;4.60;99.90;;;;;;5089885;28;20032;-83
2021/03/10 06:27:53;;;;;;;52.70;30.77;;;4.60;99.90;;;;;;5057401;28;20021;-84
2021/03/10 06:30:33;;;;;;;52.97;29.30;;;4.60;99.90;;;;;;5092995;28;20383;-84
2021/03/10 06:32:59;;;;;;;;;;;4.60;99.90;;;;;;5056062;28;20028;-85
2021/03/10 06:35:26;;;;;;;52.50;29.60;;;4.60;99.90;;;;;;5068888;28;19912;-84
2021/03/10 06:37:52;;;;;;;60.30;32.67;;;4.60;99.90;;;;;;5057540;28;20372;-83
2021/03/10 06:40:18;;;;;;;56.92;32.08;;;4.60;99.90;;;;;;5059823;28;20025;-84
2021/03/10 06:42:54;;;;;;;58.33;34.20;;;4.60;99.90;;;;;;5052467;28;20406;-83
2021/03/10 06:45:29;;;;;;;60.30;34.33;;;4.70;99.90;;;;;;5059928;28;20028;-84
2021/03/10 06:47:55;;;;;;;64.57;35.67;;;4.70;99.90;;;;;;5073721;28;20028;-83
2021/03/10 06:50:20;;;;;;;67.78;36.00;;;4.70;99.90;;;;;;5075084;28;20036;-82
2021/03/10 06:52:50;;;;;;;64.55;34.05;;;4.70;99.90;;;;;;5074173;28;20024;-83
2021/03/10 06:55:17;;;;;;;60.58;34.15;;;4.70;99.90;;;;;;5073599;28;20039;-83
2021/03/10 06:57:44;;;;;;;65.70;37.38;;;4.70;99.90;;;;;;5073869;28;20056;-82
2021/03/10 07:00:21;;;;;;;62.08;35.47;;;4.80;99.90;;;;;;5075057;28;20025;-83
2021/03/10 07:02:48;;;;;;;72.80;37.67;;;4.80;99.90;;;;;;5073746;28;20488;-82
2021/03/10 07:05:14;;;;;;;71.03;39.58;;;4.80;99.90;;;;;;5073738;28;20538;-83
2021/03/10 07:07:44;;;;;;;70.97;38.75;;;4.80;99.90;;;;;;5080180;28;20085;-83
2021/03/10 07:10:09;;;;;;;68.07;37.88;;;4.80;99.90;;;;;;5088078;28;20494;-85
2021/03/10 07:12:35;;;;;;;70.40;38.80;;;4.80;99.90;;;;;;5085951;28;20031;-84
2021/03/10 07:15:02;;;;;;;73.80;40.53;;;4.80;99.90;;;;;;5078707;28;20404;-84
2021/03/10 07:17:28;;;;;;;73.43;40.92;;;4.90;99.90;;;;;;5074890;28;20031;-84
2021/03/10 07:19:53;;;;;;;74.68;39.85;;;4.90;99.90;;;;;;5075115;28;20017;-84
2021/03/10 07:22:32;;;;;;;71.95;40.05;;;4.90;99.90;;;;;;5074553;28;20077;-84
2021/03/10 07:25:06;;;;;;;68.30;40.15;;;5.00;99.90;;;;;;5074736;28;20047;-84
2021/03/10 07:27:51;;;;;;;77.03;42.47;;;5.00;99.90;;;;;;5073312;28;20029;-84
2021/03/10 07:30:17;;;;;;;71.72;41.35;;;5.00;99.90;;;;;;5074482;28;20025;-83
2021/03/10 07:32:42;;;;;;;75.20;41.42;;;5.00;99.90;;;;;;5079643;28;20024;-84
2021/03/10 07:35:10;;;;;;;70.95;40.33;;;5.00;99.90;;;;;;5088889;28;20065;-84
2021/03/10 07:37:39;;;;;;;70.32;41.97;;;5.10;99.90;;;;;;5092371;28;20020;-83
2021/03/10 07:40:14;;;;;;;69.10;41.37;;;5.10;99.90;;;;;;5081977;28;20528;-84
2021/03/10 07:42:54;;;;;;;68.80;41.17;;;5.10;99.90;;;;;;5080957;28;20021;-83
2021/03/10 07:45:22;;;;;;;68.90;40.15;;;5.10;99.90;;;;;;5083536;28;20038;-84
2021/03/10 07:47:53;;;;;;;75.30;43.38;;;5.10;99.90;;;;;;5084610;28;20016;-84
2021/03/10 07:50:18;;;;;;;73.07;41.42;;;5.20;99.90;;;;;;5082029;28;20056;-83
2021/03/10 07:52:54;;;;;;;75.25;42.60;;;5.20;99.90;;;;;;5080958;28;20114;-83
2021/03/10 07:55:21;;;;;;;72.85;42.22;;;5.20;99.90;;;;;;5082017;28;20033;-83
2021/03/10 07:57:54;;;;;;;73.95;43.22;;;5.20;99.90;;;;;;5081044;28;20233;-83
2021/03/10 08:00:31;;;;;;;70.18;44.72;;;5.20;99.90;;;;;;5080530;28;20025;-84
2021/03/10 08:02:57;;;;;;;68.95;42.13;;;5.20;99.90;;;;;;5079119;28;20036;-83
2021/03/10 08:05:26;;;;;;;83.65;45.97;;;5.20;99.90;;;;;;5074084;28;20035;-83
2021/03/10 08:08:13;;;;;;;73.30;44.45;;;5.20;99.90;;;;;;5077356;28;20381;-83
2021/03/10 08:10:40;;;;;;;80.57;45.65;;;5.30;99.90;;;;;;5069382;28;20028;-83
2021/03/10 08:13:16;;;;;;;73.82;42.47;;;5.20;99.90;;;;;;5071851;28;20074;-84
2021/03/10 08:15:42;;;;;;;65.63;42.30;;;5.30;99.90;;;;;;5076043;28;20056;-83
2021/03/10 08:18:08;;;;;;;77.57;45.00;;;5.30;99.90;;;;;;5074685;28;20052;-83
2021/03/10 08:20:35;;;;;;;74.90;45.92;;;5.30;99.90;;;;;;5072105;28;20036;-84
2021/03/10 08:23:05;;;;;;;76.38;45.47;;;5.40;99.90;;;;;;5072976;28;20507;-83
2021/03/10 08:25:33;;;;;;;;;;;5.40;99.90;;;;;;5072529;28;20031;-82
2021/03/10 08:28:12;;;;;;;71.82;40.85;;;5.40;99.90;;;;;;5066910;28;19912;-82
2021/03/10 08:30:38;;;;;;;64.95;40.45;;;5.40;99.90;;;;;;5047008;28;20496;-83
2021/03/10 08:33:05;;;;;;;66.03;39.95;;;5.40;99.90;;;;;;5047308;28;20032;-82
2021/03/10 08:35:31;;;;;;;69.53;42.25;;;5.50;99.90;;;;;;5075644;28;20027;-83
2021/03/10 08:38:00;;;;;;;72.25;42.28;;;5.50;99.90;;;;;;5081581;28;20024;-82
2021/03/10 08:40:28;;;;;;;68.40;42.10;;;5.60;99.90;;;;;;5082083;28;20066;-83
2021/03/10 08:42:54;;;;;;;65.18;39.85;;;5.70;99.90;;;;;;5076102;28;20503;-83
2021/03/10 08:45:28;;;;;;;75.85;42.08;;;5.70;99.90;;;;;;5072948;28;20028;-84
2021/03/10 08:48:08;;;;;;;63.63;40.53;;;5.70;99.90;;;;;;5071705;28;20078;-83
2021/03/10 08:50:42;;;;;;;67.00;38.85;;;5.80;99.90;;;;;;5100922;28;20078;-83
2021/03/10 08:53:11;;;;;;;64.85;41.28;;;5.80;99.90;;;;;;5091704;28;20032;-83
2021/03/10 08:55:37;;;;;;;65.68;39.95;;;5.90;99.90;;;;;;5093215;28;20046;-83
2021/03/10 08:58:11;;;;;;;68.75;41.08;;;5.90;99.90;;;;;;5091869;28;20472;-84
2021/03/10 09:00:38;;;;;;;63.15;39.00;;;6.00;99.90;;;;;;5092103;28;20030;-83
2021/03/10 09:03:13;;;;;;;66.18;40.28;;;6.00;99.90;;;;;;5091543;28;20442;-83
2021/03/10 09:05:41;;;;;;;59.25;36.70;;;6.10;99.90;;;;;;5092551;28;20024;-83
2021/03/10 09:08:07;;;;;;;65.25;37.78;;;6.10;99.90;;;;;;5091622;28;20395;-82
2021/03/10 09:10:34;;;;;;;64.97;39.65;;;6.10;99.90;;;;;;5091653;28;20024;-82
2021/03/10 09:13:01;;;;;;;61.80;39.20;;;6.10;99.90;;;;;;5092577;28;20020;-83
2021/03/10 09:15:29;;;;;;;65.75;40.30;;;6.20;99.90;;;;;;5092799;28;20059;-83
2021/03/10 09:18:05;;;;;;;62.45;39.03;;;6.20;99.90;;;;;;5086167;28;20020;-83
2021/03/10 09:20:37;;;;;;;59.78;38.40;;;6.30;99.90;;;;;;5099976;28;20028;-84
2021/03/10 09:23:03;;;;;;;60.30;38.78;;;6.30;99.90;;;;;;5088092;28;20476;-82
2021/03/10 09:25:37;;;;;;;63.25;38.33;;;6.40;99.90;;;;;;5099070;28;20031;-84
2021/03/10 09:28:14;;;;;;;60.95;36.90;;;6.50;99.90;;;;;;5088404;28;20033;-83
2021/03/10 09:30:41;;;;;;;66.45;40.25;;;6.50;99.90;;;;;;5086865;28;20111;-83
2021/03/10 09:33:18;;;;;;;60.88;38.28;;;6.50;99.90;;;;;;5081816;28;20072;-84
2021/03/10 09:35:57;;;;;;;57.30;36.67;;;6.60;99.90;;;;;;5081649;28;20131;-83
2021/03/10 09:38:24;;;;;;;58.60;37.80;;;6.60;99.90;;;;;;5078156;28;20032;-84
2021/03/10 09:40:52;;;;;;;60.63;38.20;;;6.60;99.90;;;;;;5076381;28;20292;-83
2021/03/10 09:43:25;;;;;;;60.00;38.85;;;6.60;99.90;;;;;;5041344;28;20319;-83
2021/03/10 09:45:55;;;;;;;63.60;38.75;;;6.60;99.90;;;;;;5061606;28;20456;-83
2021/03/10 09:48:28;;;;;;;60.25;37.50;;;6.70;99.90;;;;;;5081574;28;20076;-83
2021/03/10 09:51:02;;;;;;;64.05;37.03;;;6.70;99.90;;;;;;5077789;28;20020;-83
2021/03/10 09:53:28;;;;;;;57.30;38.33;;;6.80;99.90;;;;;;5085558;28;20020;-83
2021/03/10 09:56:24;;;;;;;57.80;36.53;;;6.80;99.90;;;;;;5088813;28;20020;-85
2021/03/10 09:58:57;;;;;;;59.25;37.35;;;6.90;99.90;;;;;;5084462;28;20433;-83
2021/03/10 10:01:24;;;;;;;54.92;35.97;;;7.00;99.90;;;;;;5051830;28;20497;-84
2021/03/10 10:03:51;;;;;;;58.15;35.97;;;7.00;99.90;;;;;;5058233;28;20058;-84
2021/03/10 10:06:17;;;;;;;58.63;36.67;;;7.00;99.90;;;;;;5073179;28;20031;-84
2021/03/10 10:08:47;;;;;;;53.10;35.50;;;7.20;99.90;;;;;;5077976;28;20032;-83
2021/03/10 10:11:13;;;;;;;57.15;37.25;;;7.20;99.90;;;;;;5077314;28;20031;-83
2021/03/10 10:13:44;;;;;;;58.22;35.40;;;7.20;99.90;;;;;;5071841;28;20039;-83
2021/03/10 10:16:10;;;;;;;53.38;35.03;;;7.20;99.90;;;;;;5072363;28;20025;-83
2021/03/10 10:18:36;;;;;;;54.17;34.13;;;7.20;99.90;;;;;;5082989;28;20016;-83
2021/03/10 10:21:03;;;;;;;60.85;37.33;;;7.30;99.90;;;;;;5084136;28;20013;-83
2021/03/10 10:23:29;;;;;;;53.70;34.33;;;7.30;99.90;;;;;;5084757;28;20112;-84
2021/03/10 10:25:55;;;;;;;52.70;32.33;;;7.40;99.90;;;;;;5075586;28;20392;-83
2021/03/10 10:28:21;;;;;;;53.17;32.58;;;7.50;99.90;;;;;;5047092;28;20029;-83
2021/03/10 10:30:47;;;;;;;50.60;31.80;;;7.50;99.90;;;;;;5050817;28;20082;-83
2021/03/10 10:33:12;;;;;;;47.17;31.30;;;7.50;99.90;;;;;;5083681;28;20017;-83
2021/03/10 10:35:38;;;;;;;50.28;30.77;;;7.60;99.90;;;;;;5081868;28;20050;-83
2021/03/10 10:38:03;;;;;;;43.42;30.35;;;7.60;99.90;;;;;;5082192;28;20529;-83
2021/03/10 10:40:29;;;;;;;49.55;32.08;;;7.80;99.90;;;;;;5093726;28;20032;-82
2021/03/10 10:42:55;;;;;;;45.63;29.60;;;7.80;99.90;;;;;;5055119;28;20028;-82
2021/03/10 10:45:20;;;;;;;51.78;31.30;;;7.90;99.90;;;;;;5045570;28;21350;-84
2021/03/10 10:47:46;;;;;;;44.45;30.02;;;8.00;99.90;;;;;;5096251;28;20031;-83
2021/03/10 10:50:13;;;;;;;44.78;28.92;;;8.00;99.90;;;;;;5083121;28;20016;-83
2021/03/10 10:52:39;;;;;;;44.85;30.10;;;8.10;99.90;;;;;;5082792;28;20410;-84
2021/03/10 10:55:10;;;;;;;42.03;28.30;;;8.10;99.90;;;;;;5085700;28;20044;-83
2021/03/10 10:57:35;;;;;;;37.83;25.88;;;8.10;99.90;;;;;;5083548;28;20020;-83
2021/03/10 11:00:01;;;;;;;45.60;29.02;;;8.10;99.90;;;;;;5089710;28;20387;-83
2021/03/10 11:02:27;;;;;;;43.22;27.17;;;8.10;99.90;;;;;;5093814;28;20063;-83
2021/03/10 11:04:52;;;;;;;37.33;26.35;;;8.10;99.90;;;;;;5094726;28;20064;-84
2021/03/10 11:07:18;;;;;;;37.20;25.70;;;8.10;99.90;;;;;;5093594;28;20501;-83
2021/03/10 11:09:44;;;;;;;39.92;24.88;;;8.20;99.90;;;;;;5086159;28;20057;-81
2021/03/10 11:12:12;;;;;;;38.35;23.67;;;8.20;99.90;;;;;;5084537;28;20103;-83
2021/03/10 11:14:38;;;;;;;35.78;22.83;;;8.30;99.50;;;;;;5094128;28;20028;-84
2021/03/10 11:17:04;;;;;;;36.42;23.60;;;8.30;99.00;;;;;;5090492;28;20029;-83
2021/03/10 11:19:30;;;;;;;30.95;21.52;;;8.40;98.40;;;;;;5090546;28;20047;-82
2021/03/10 11:21:55;;;;;;;29.10;20.10;;;8.40;98.10;;;;;;5090898;28;20089;-84
2021/03/10 11:24:21;;;;;;;32.08;21.00;;;8.50;97.70;;;;;;5083331;28;20027;-82
2021/03/10 11:26:48;;;;;;;29.70;20.48;;;8.60;97.40;;;;;;5084762;28;20074;-83
2021/03/10 11:29:13;;;;;;;28.45;19.10;;;8.60;97.20;;;;;;5090951;28;20082;-82
2021/03/10 11:31:39;;;;;;;28.55;18.45;;;8.70;97.10;;;;;;5085559;28;20035;-83
2021/03/10 11:34:05;;;;;;;30.38;20.58;;;8.70;96.20;;;;;;5084084;28;20463;-83
2021/03/10 11:36:30;;;;;;;34.53;21.45;;;8.80;95.10;;;;;;5082419;28;20051;-83
2021/03/10 11:38:56;;;;;;;29.50;18.80;;;8.80;94.70;;;;;;5081350;28;20023;-83
2021/03/10 11:41:21;;;;;;;27.50;18.95;;;8.80;94.40;;;;;;5080810;28;20059;-83
2021/03/10 11:43:47;;;;;;;30.60;19.55;;;8.90;94.50;;;;;;5083304;28;20019;-82
2021/03/10 11:46:12;;;;;;;27.60;19.80;;;8.90;94.60;;;;;;5073153;28;20032;-82
2021/03/10 11:48:38;;;;;;;32.97;20.40;;;8.90;94.80;;;;;;5072643;28;20040;-82
2021/03/10 11:51:04;;;;;;;25.85;18.10;;;8.90;94.70;;;;;;5072466;28;20347;-83
2021/03/10 11:53:30;;;;;;;31.33;18.10;;;8.90;94.90;;;;;;5073743;28;20455;-83
2021/03/10 11:55:56;;;;;;;30.77;18.15;;;8.90;93.90;;;;;;5072608;28;20480;-82
2021/03/10 11:58:22;;;;;;;26.63;17.30;;;8.90;93.70;;;;;;5072391;28;20112;-83
2021/03/10 12:00:48;;;;;;;26.30;19.02;;;9.00;94.10;;;;;;5077006;28;20481;-83
2021/03/10 12:03:13;;;;;;;25.27;17.73;;;9.10;93.80;;;;;;5078088;28;20048;-83
2021/03/10 12:05:39;;;;;;;26.05;17.77;;;9.10;94.00;;;;;;5089183;28;20029;-82
2021/03/10 12:08:05;;;;;;;24.73;17.67;;;9.20;94.40;;;;;;5099201;28;20039;-82
2021/03/10 12:10:37;;;;;;;25.38;18.63;;;9.30;94.00;;;;;;5087558;28;20076;-83
2021/03/10 12:13:03;;;;;;;26.25;18.33;;;9.40;93.90;;;;;;5088278;28;20016;-84
2021/03/10 12:15:28;;;;;;;27.50;18.90;;;9.50;93.70;;;;;;5081353;28;20496;-84
2021/03/10 12:17:54;;;;;;;26.95;18.42;;;9.50;93.60;;;;;;5082675;28;20126;-84
2021/03/10 12:20:19;;;;;;;23.35;17.63;;;9.60;93.40;;;;;;5082584;28;20098;-83
2021/03/10 12:22:45;;;;;;;24.88;17.48;;;9.60;92.80;;;;;;5080995;28;20016;-82
2021/03/10 12:25:11;;;;;;;26.10;18.27;;;9.70;92.40;;;;;;5081645;28;20480;-84
2021/03/10 12:27:37;;;;;;;25.85;18.00;;;9.90;92.50;;;;;;5083409;28;20028;-83
2021/03/10 12:30:03;;;;;;;25.58;18.52;;;10.00;91.80;;;;;;5081929;28;20035;-83
2021/03/10 12:32:29;;;;;;;25.58;19.15;;;10.10;91.50;;;;;;5083060;28;20062;-82
2021/03/10 12:34:56;;;;;;;28.52;19.98;;;10.20;91.00;;;;;;5076153;28;20025;-83
2021/03/10 12:37:22;;;;;;;23.45;17.38;;;10.30;90.40;;;;;;5081576;28;20021;-83
2021/03/10 12:39:48;;;;;;;24.33;18.15;;;10.40;90.20;;;;;;5094995;28;20031;-84
2021/03/10 12:42:14;;;;;;;27.52;19.73;;;10.50;89.90;;;;;;5082427;28;20020;-83
2021/03/10 12:44:41;;;;;;;27.17;18.52;;;10.50;88.80;;;;;;5083602;28;20111;-83